createdAt,value
2022-10-25T00:01:28.352Z,13.30
2022-10-25T00:03:56.037Z,13.30
2022-10-25T00:06:23.560Z,13.34
2022-10-25T00:08:50.874Z,13.41
2022-10-25T00:11:24.114Z,13.41
2022-10-25T00:13:52.779Z,13.38
2022-10-25T00:16:23.338Z,13.38
2022-10-25T00:18:50.274Z,13.42
2022-10-25T00:21:17.145Z,13.42
2022-10-25T00:23:44.243Z,13.42
2022-10-25T00:26:11.901Z,13.49
2022-10-25T00:28:39.277Z,13.47
2022-10-25T00:31:09.304Z,13.48
2022-10-25T00:33:37.220Z,13.51
2022-10-25T00:36:19.354Z,13.60
2022-10-25T00:38:46.898Z,13.63
2022-10-25T00:41:16.390Z,13.61
2022-10-25T00:43:48.973Z,13.59
2022-10-25T00:46:23.377Z,13.63
2022-10-25T00:49:11.294Z,13.59
2022-10-25T00:51:44.385Z,13.61
2022-10-25T00:54:13.369Z,13.63
2022-10-25T00:56:42.981Z,13.63
2022-10-25T00:59:14.932Z,13.61
2022-10-25T01:01:42.301Z,13.55
2022-10-25T01:04:11.742Z,13.57
2022-10-25T01:06:41.928Z,13.59
2022-10-25T01:09:10.109Z,13.66
2022-10-25T01:11:37.977Z,13.64
2022-10-25T01:14:07.839Z,13.59
2022-10-25T01:16:43.685Z,13.68
2022-10-25T01:19:30.633Z,13.56
2022-10-25T01:22:07.074Z,13.55
2022-10-25T01:24:42.723Z,13.62
2022-10-25T01:27:31.225Z,13.59
2022-10-25T01:30:20.122Z,13.66
2022-10-25T01:33:04.282Z,13.71
2022-10-25T01:35:33.205Z,13.72
2022-10-25T01:38:33.446Z,13.77
2022-10-25T01:41:17.670Z,13.84
2022-10-25T01:44:07.854Z,13.85
2022-10-25T01:46:58.811Z,13.73
2022-10-25T01:49:40.225Z,13.74
2022-10-25T01:52:10.203Z,13.59
2022-10-25T01:54:40.364Z,13.58
2022-10-25T01:57:19.538Z,13.52
2022-10-25T02:00:00.344Z,13.39
2022-10-25T02:02:27.111Z,13.44
2022-10-25T02:05:19.687Z,13.44
2022-10-25T02:08:04.876Z,13.48
2022-10-25T02:10:38.534Z,13.39
2022-10-25T02:13:16.714Z,13.49
2022-10-25T02:16:09.855Z,13.53
2022-10-25T02:18:39.942Z,13.55
2022-10-25T02:21:07.310Z,13.49
2022-10-25T02:23:35.526Z,13.48
2022-10-25T02:26:04.312Z,13.48
2022-10-25T02:28:33.057Z,13.42
2022-10-25T02:31:00.369Z,13.42
2022-10-25T02:33:27.579Z,13.47
2022-10-25T02:36:16.933Z,13.48
2022-10-25T02:38:44.333Z,13.34
2022-10-25T02:41:11.690Z,13.23
2022-10-25T02:43:38.566Z,13.15
2022-10-25T02:46:10.860Z,13.11
2022-10-25T02:48:38.066Z,13.10
2022-10-25T02:51:06.259Z,13.02
2022-10-25T02:53:33.150Z,13.03
2022-10-25T02:56:01.872Z,13.05
2022-10-25T02:58:33.441Z,13.16
2022-10-25T03:01:00.775Z,13.28
2022-10-25T03:03:28.256Z,13.52
2022-10-25T03:05:55.484Z,13.67
2022-10-25T03:08:22.764Z,13.71
2022-10-25T03:10:49.709Z,13.64
2022-10-25T03:13:17.098Z,13.53
2022-10-25T03:15:45.003Z,13.52
2022-10-25T03:18:12.793Z,13.46
2022-10-25T03:20:40.169Z,13.56
2022-10-25T03:23:07.361Z,13.41
2022-10-25T03:25:34.428Z,13.37
2022-10-25T03:28:01.618Z,13.26
2022-10-25T03:30:29.668Z,13.22
2022-10-25T03:32:57.592Z,13.32
2022-10-25T03:35:24.924Z,13.36
2022-10-25T03:37:52.280Z,13.29
2022-10-25T03:40:19.879Z,13.33
2022-10-25T03:42:47.114Z,13.41
2022-10-25T03:45:13.962Z,13.44
2022-10-25T03:47:40.847Z,13.46
2022-10-25T03:50:08.501Z,13.52
2022-10-25T03:52:35.470Z,13.48
2022-10-25T03:55:02.326Z,13.45
2022-10-25T03:57:29.447Z,13.44
2022-10-25T03:59:57.840Z,13.30
2022-10-25T04:02:24.703Z,13.23
2022-10-25T04:04:52.198Z,13.21
2022-10-25T04:07:19.409Z,13.27
2022-10-25T04:09:46.319Z,13.21
2022-10-25T04:12:13.563Z,13.26
2022-10-25T04:14:40.438Z,13.37
2022-10-25T04:17:07.278Z,13.39
2022-10-25T04:19:34.413Z,13.38
2022-10-25T04:22:02.578Z,13.45
2022-10-25T04:24:29.867Z,13.55
2022-10-25T04:26:56.970Z,13.41
2022-10-25T04:29:23.862Z,13.35
2022-10-25T04:31:50.731Z,13.38
2022-10-25T04:34:17.821Z,13.43
2022-10-25T04:36:44.684Z,13.47
2022-10-25T04:39:11.533Z,13.40
2022-10-25T04:41:38.638Z,13.40
2022-10-25T04:44:05.574Z,13.46
2022-10-25T04:46:32.415Z,13.40
2022-10-25T04:48:59.561Z,13.40
2022-10-25T04:51:26.466Z,13.38
2022-10-25T04:53:54.667Z,13.38
2022-10-25T04:56:22.202Z,13.42
2022-10-25T04:58:49.061Z,13.42
2022-10-25T05:01:17.818Z,13.44
2022-10-25T05:03:45.237Z,13.43
2022-10-25T05:06:16.382Z,13.41
2022-10-25T05:08:52.487Z,13.42
2022-10-25T05:11:22.251Z,13.40
2022-10-25T05:13:49.361Z,13.40
2022-10-25T05:16:23.337Z,13.33
2022-10-25T05:18:54.314Z,13.43
2022-10-25T05:21:22.603Z,13.43
2022-10-25T05:23:49.495Z,13.38
2022-10-25T05:26:19.582Z,13.42
2022-10-25T05:28:48.230Z,13.40
2022-10-25T05:31:16.068Z,13.25
2022-10-25T05:33:46.877Z,13.33
2022-10-25T05:36:13.766Z,13.41
2022-10-25T05:38:41.306Z,13.52
2022-10-25T05:41:10.321Z,13.65
2022-10-25T05:43:37.191Z,13.62
2022-10-25T05:46:07.010Z,13.57
2022-10-25T05:48:35.381Z,13.58
2022-10-25T05:51:32.852Z,13.63
2022-10-25T05:54:03.153Z,13.60
2022-10-25T05:56:31.233Z,13.46
2022-10-25T05:58:58.168Z,13.52
2022-10-25T06:01:28.605Z,13.51
2022-10-25T06:03:55.815Z,13.61
2022-10-25T06:06:23.399Z,13.60
2022-10-25T06:08:50.353Z,13.50
2022-10-25T06:11:19.228Z,13.50
2022-10-25T06:13:46.579Z,13.67
2022-10-25T06:16:15.510Z,13.63
2022-10-25T06:18:43.172Z,13.59
2022-10-25T06:21:15.812Z,13.70
2022-10-25T06:23:43.852Z,13.80
2022-10-25T06:26:15.671Z,13.76
2022-10-25T06:28:43.038Z,13.83
2022-10-25T06:31:12.433Z,13.95
2022-10-25T06:33:39.663Z,13.92
2022-10-25T06:36:09.294Z,14.10
2022-10-25T06:38:36.114Z,14.22
2022-10-25T06:41:07.189Z,14.32
2022-10-25T06:43:34.969Z,14.41
2022-10-25T06:46:06.477Z,14.55
2022-10-25T06:48:34.533Z,14.60
2022-10-25T06:51:06.305Z,14.60
2022-10-25T06:53:33.397Z,14.60
2022-10-25T06:56:04.634Z,14.54
2022-10-25T06:58:33.959Z,14.43
2022-10-25T07:01:05.520Z,14.57
2022-10-25T07:03:35.902Z,14.64
2022-10-25T07:06:08.235Z,14.66
2022-10-25T07:08:36.385Z,14.72
2022-10-25T07:11:03.810Z,14.76
2022-10-25T07:13:32.351Z,14.78
2022-10-25T07:16:04.398Z,14.90
2022-10-25T07:18:32.006Z,14.93
2022-10-25T07:21:20.165Z,14.94
2022-10-25T07:23:48.048Z,14.98
2022-10-25T07:26:17.894Z,15.14
2022-10-25T07:28:46.566Z,15.15
2022-10-25T07:31:16.192Z,15.19
2022-10-25T07:33:43.520Z,15.31
2022-10-25T07:36:11.654Z,15.34
2022-10-25T07:38:39.170Z,15.40
2022-10-25T07:41:06.610Z,15.44
2022-10-25T07:43:33.621Z,15.53
2022-10-25T07:46:00.510Z,15.55
2022-10-25T07:48:27.780Z,15.49
2022-10-25T07:50:54.688Z,15.54
2022-10-25T07:53:21.581Z,15.70
2022-10-25T07:55:55.438Z,15.66
2022-10-25T07:58:22.391Z,15.59
2022-10-25T08:00:49.555Z,15.56
2022-10-25T08:03:17.760Z,15.75
2022-10-25T08:05:46.158Z,15.89
2022-10-25T08:08:14.389Z,16.16
2022-10-25T08:10:43.288Z,16.31
2022-10-25T08:13:10.423Z,16.59
2022-10-25T08:15:37.614Z,16.69
2022-10-25T08:18:05.583Z,16.57
2022-10-25T08:20:56.833Z,16.62
2022-10-25T08:23:19.843Z,16.56
2022-10-25T08:25:47.164Z,16.77
2022-10-25T08:28:14.298Z,16.85
2022-10-25T08:30:41.762Z,16.65
2022-10-25T08:33:11.665Z,16.67
2022-10-25T08:35:39.345Z,16.69
2022-10-25T08:38:06.517Z,16.49
2022-10-25T08:40:42.271Z,16.35
2022-10-25T08:43:27.931Z,16.31
2022-10-25T08:45:58.519Z,16.32
2022-10-25T08:48:32.073Z,16.36
2022-10-25T08:51:03.327Z,16.41
2022-10-25T08:53:34.596Z,16.43
2022-10-25T08:56:17.582Z,16.69
2022-10-25T08:58:52.613Z,16.77
2022-10-25T09:01:24.198Z,16.87
2022-10-25T09:03:51.393Z,16.91
2022-10-25T09:06:48.763Z,16.98
2022-10-25T09:09:18.541Z,16.97
2022-10-25T09:12:19.118Z,16.89
2022-10-25T09:15:08.050Z,17.12
2022-10-25T09:17:40.251Z,17.23
2022-10-25T09:20:15.499Z,17.26
2022-10-25T09:22:51.563Z,17.32
2022-10-25T09:25:27.175Z,17.36
2022-10-25T09:28:04.175Z,17.29
2022-10-25T09:30:37.587Z,17.00
2022-10-25T09:33:09.386Z,17.11
2022-10-25T09:35:46.031Z,17.06
2022-10-25T09:38:38.896Z,16.85
2022-10-25T09:41:17.251Z,16.83
2022-10-25T09:43:49.345Z,16.83
2022-10-25T09:46:19.439Z,16.79
2022-10-25T09:48:51.062Z,16.79
2022-10-25T09:51:39.586Z,16.71
2022-10-25T09:54:17.651Z,16.91
2022-10-25T09:56:44.810Z,17.15
2022-10-25T09:59:15.737Z,17.26
2022-10-25T10:01:43.174Z,17.30
2022-10-25T10:04:23.706Z,17.40
2022-10-25T10:06:52.234Z,17.53
2022-10-25T10:09:19.940Z,17.34
2022-10-25T10:11:47.995Z,17.14
2022-10-25T10:14:28.879Z,17.23
2022-10-25T10:16:57.855Z,17.36
2022-10-25T10:19:26.759Z,17.26
2022-10-25T10:22:01.894Z,17.18
2022-10-25T10:24:38.786Z,17.14
2022-10-25T10:27:20.579Z,16.97
2022-10-25T10:29:56.312Z,17.06
2022-10-25T10:32:28.021Z,17.11
2022-10-25T10:34:56.978Z,17.36
2022-10-25T10:37:25.248Z,17.59
2022-10-25T10:39:59.066Z,17.63
2022-10-25T10:42:35.435Z,17.60
2022-10-25T10:45:08.374Z,17.64
2022-10-25T10:47:49.559Z,17.63
2022-10-25T10:50:22.586Z,17.73
2022-10-25T10:53:02.768Z,17.69
2022-10-25T10:55:49.171Z,17.70
2022-10-25T10:58:26.840Z,17.69
2022-10-25T11:01:08.761Z,17.67
2022-10-25T11:03:53.595Z,17.60
2022-10-25T11:06:30.441Z,17.67
2022-10-25T11:09:12.882Z,17.72
2022-10-25T11:11:40.601Z,17.82
2022-10-25T11:14:13.544Z,17.91
2022-10-25T11:16:50.778Z,18.11
2022-10-25T11:19:56.980Z,18.14
2022-10-25T11:25:41.932Z,18.04
2022-10-25T11:28:30.787Z,17.98
2022-10-25T11:30:57.846Z,17.72
2022-10-25T11:33:37.664Z,17.66
2022-10-25T11:36:50.739Z,17.71
2022-10-25T11:39:32.334Z,17.44
2022-10-25T11:42:16.641Z,17.16
2022-10-25T11:45:02.174Z,17.04
2022-10-25T11:48:02.707Z,17.01
2022-10-25T11:50:54.696Z,17.18
2022-10-25T11:53:42.250Z,17.36
2022-10-25T11:56:40.334Z,17.36
2022-10-25T11:59:19.570Z,17.61
2022-10-25T12:01:46.536Z,17.69
2022-10-25T12:04:55.935Z,17.88
2022-10-25T12:07:30.059Z,18.02
2022-10-25T12:10:15.342Z,18.19
2022-10-25T12:13:11.208Z,18.19
2022-10-25T12:15:43.729Z,18.20
2022-10-25T12:18:17.767Z,18.36
2022-10-25T12:20:46.815Z,18.37
2022-10-25T12:23:17.136Z,18.31
2022-10-25T12:25:47.591Z,18.35
2022-10-25T12:28:43.007Z,18.40
2022-10-25T12:31:27.742Z,18.47
2022-10-25T12:33:59.446Z,18.44
2022-10-25T12:36:32.046Z,18.37
2022-10-25T12:39:00.223Z,18.35
2022-10-25T12:41:36.565Z,18.27
2022-10-25T12:44:33.614Z,18.26
2022-10-25T12:47:39.288Z,18.29
2022-10-25T12:50:38.405Z,18.26
2022-10-25T12:53:40.643Z,18.31
2022-10-25T12:56:23.406Z,18.57
2022-10-25T12:59:06.794Z,18.39
2022-10-25T13:01:52.246Z,18.31
2022-10-25T13:04:37.858Z,18.26
2022-10-25T13:07:06.626Z,18.29
2022-10-25T13:09:35.266Z,18.29
2022-10-25T13:12:10.797Z,18.37
2022-10-25T13:14:52.232Z,18.39
2022-10-25T13:17:18.964Z,18.35
2022-10-25T13:19:54.527Z,18.30
2022-10-25T13:22:34.122Z,18.34
2022-10-25T13:25:15.637Z,18.43
2022-10-25T13:28:16.685Z,18.35
2022-10-25T13:30:44.551Z,18.55
2022-10-25T13:33:24.414Z,18.55
2022-10-25T13:35:51.469Z,18.49
2022-10-25T13:38:30.168Z,18.51
2022-10-25T13:41:10.257Z,18.52
2022-10-25T13:43:59.469Z,18.39
2022-10-25T13:46:39.521Z,18.49
2022-10-25T13:49:35.190Z,18.50
2022-10-25T13:52:05.459Z,18.53
2022-10-25T13:54:50.172Z,18.65
2022-10-25T13:57:48.460Z,18.60
2022-10-25T14:00:18.285Z,18.53
2022-10-25T14:03:10.440Z,18.56
2022-10-25T14:05:56.071Z,18.56
2022-10-25T14:08:26.025Z,18.56
2022-10-25T14:10:53.403Z,18.52
2022-10-25T14:13:28.461Z,18.47
2022-10-25T14:16:01.459Z,18.46
2022-10-25T14:18:28.738Z,18.40
2022-10-25T14:20:59.370Z,18.40
2022-10-25T14:23:30.292Z,18.39
2022-10-25T14:25:59.111Z,18.39
2022-10-25T14:28:33.529Z,18.30
2022-10-25T14:31:05.082Z,18.37
2022-10-25T14:33:48.851Z,18.42
2022-10-25T14:36:29.641Z,18.69
2022-10-25T14:39:01.739Z,18.57
2022-10-25T14:41:31.516Z,18.38
2022-10-25T14:43:58.531Z,18.18
2022-10-25T14:46:27.238Z,18.14
2022-10-25T14:48:56.650Z,18.07
2022-10-25T14:51:33.132Z,18.01
2022-10-25T14:54:07.879Z,18.01
2022-10-25T14:56:41.180Z,17.89
2022-10-25T14:59:21.259Z,17.80
2022-10-25T15:01:57.520Z,17.75
2022-10-25T15:04:34.338Z,17.60
2022-10-25T15:07:01.925Z,17.35
2022-10-25T15:09:42.162Z,17.23
2022-10-25T15:12:12.298Z,17.11
2022-10-25T15:14:42.698Z,16.98
2022-10-25T15:17:18.924Z,16.97
2022-10-25T15:20:01.449Z,17.01
2022-10-25T15:22:30.806Z,16.88
2022-10-25T15:24:58.032Z,16.71
2022-10-25T15:27:27.886Z,16.67
2022-10-25T15:29:55.012Z,16.45
2022-10-25T15:32:24.138Z,16.34
2022-10-25T15:34:56.432Z,16.03
2022-10-25T15:37:24.681Z,15.82
2022-10-25T15:39:53.357Z,15.71
2022-10-25T15:42:21.555Z,15.59
2022-10-25T15:44:48.720Z,15.63
2022-10-25T15:47:35.048Z,15.48
2022-10-25T15:50:05.092Z,15.36
2022-10-25T15:52:31.951Z,15.25
2022-10-25T15:54:58.802Z,15.27
2022-10-25T15:57:27.385Z,15.33
2022-10-25T15:59:54.396Z,15.22
2022-10-25T16:02:26.296Z,15.20
2022-10-25T16:04:53.437Z,15.09
2022-10-25T16:07:20.319Z,14.98
2022-10-25T16:09:47.264Z,14.89
2022-10-25T16:12:19.813Z,14.75
2022-10-25T16:14:47.528Z,14.64
2022-10-25T16:17:14.897Z,14.51
2022-10-25T16:19:41.791Z,14.45
2022-10-25T16:22:11.724Z,14.35
2022-10-25T16:24:38.826Z,14.25
2022-10-25T16:27:05.662Z,14.14
2022-10-25T16:29:32.559Z,14.01
2022-10-25T16:31:59.649Z,13.89
2022-10-25T16:34:26.545Z,13.75
2022-10-25T16:36:53.894Z,13.59
2022-10-25T16:39:21.085Z,13.51
2022-10-25T16:41:48.005Z,13.46
2022-10-25T16:44:17.733Z,13.34
2022-10-25T16:46:45.211Z,13.20
2022-10-25T16:49:12.280Z,13.11
2022-10-25T16:51:39.628Z,13.03
2022-10-25T16:54:07.241Z,12.94
2022-10-25T16:56:34.203Z,12.86
2022-10-25T16:59:01.088Z,12.74
2022-10-25T17:01:33.579Z,12.63
2022-10-25T17:04:01.326Z,12.58
2022-10-25T17:06:40.812Z,12.46
2022-10-25T17:09:08.927Z,12.45
2022-10-25T17:11:36.475Z,12.40
2022-10-25T17:14:04.043Z,12.31
2022-10-25T17:16:31.108Z,12.30
2022-10-25T17:18:58.190Z,12.31
2022-10-25T17:21:25.048Z,12.29
2022-10-25T17:23:51.881Z,12.21
2022-10-25T17:26:18.993Z,12.15
2022-10-25T17:28:45.844Z,12.10
2022-10-25T17:31:14.241Z,12.12
2022-10-25T17:33:42.028Z,12.18
2022-10-25T17:36:17.341Z,12.19
2022-10-25T17:38:44.769Z,12.17
2022-10-25T17:41:12.558Z,12.16
2022-10-25T17:43:40.398Z,12.17
2022-10-25T17:46:17.235Z,12.13
2022-10-25T17:48:44.108Z,12.09
2022-10-25T17:51:12.318Z,12.08
2022-10-25T17:53:39.490Z,12.08
2022-10-25T17:56:15.714Z,12.05
2022-10-25T17:58:44.864Z,12.02
2022-10-25T18:01:13.251Z,11.99
2022-10-25T18:03:40.490Z,11.92
2022-10-25T18:06:10.091Z,11.90
2022-10-25T18:08:37.163Z,11.82
2022-10-25T18:11:11.390Z,11.78
2022-10-25T18:13:40.569Z,11.74
2022-10-25T18:16:08.634Z,11.66
2022-10-25T18:18:35.846Z,11.70
2022-10-25T18:21:07.347Z,11.78
2022-10-25T18:23:34.885Z,11.74
2022-10-25T18:26:02.516Z,11.69
2022-10-25T18:28:32.110Z,11.71
2022-10-25T18:31:04.233Z,11.70
2022-10-25T18:33:32.743Z,11.58
2022-10-25T18:36:01.615Z,11.54
2022-10-25T18:38:28.505Z,11.54
2022-10-25T18:40:55.462Z,11.50
2022-10-25T18:43:24.107Z,11.47
2022-10-25T18:45:56.346Z,11.42
2022-10-25T18:48:23.478Z,11.34
2022-10-25T18:50:50.363Z,11.33
2022-10-25T18:53:18.070Z,11.27
2022-10-25T18:55:45.926Z,11.28
2022-10-25T18:58:14.971Z,11.28
2022-10-25T19:00:43.438Z,11.25
2022-10-25T19:03:15.536Z,11.15
2022-10-25T19:05:43.067Z,11.15
2022-10-25T19:08:11.609Z,11.10
2022-10-25T19:10:41.841Z,11.04
2022-10-25T19:13:12.341Z,11.01
2022-10-25T19:15:39.458Z,11.12
2022-10-25T19:18:06.310Z,11.14
2022-10-25T19:20:33.174Z,11.15
2022-10-25T19:23:00.271Z,11.06
2022-10-25T19:25:29.677Z,11.05
2022-10-25T19:27:56.849Z,11.06
2022-10-25T19:30:24.513Z,11.01
2022-10-25T19:32:51.797Z,11.05
2022-10-25T19:35:19.103Z,11.04
2022-10-25T19:37:46.472Z,11.04
2022-10-25T19:40:13.832Z,11.01
2022-10-25T19:42:40.710Z,11.01
2022-10-25T19:45:07.929Z,10.94
2022-10-25T19:47:35.824Z,10.92
2022-10-25T19:50:05.534Z,10.83
2022-10-25T19:52:36.889Z,10.75
2022-10-25T19:55:06.180Z,10.65
2022-10-25T19:57:33.916Z,10.60
2022-10-25T20:00:00.961Z,10.45
2022-10-25T20:02:27.940Z,10.46
2022-10-25T20:04:55.153Z,10.40
2022-10-25T20:07:22.083Z,10.39
2022-10-25T20:09:48.940Z,10.38
2022-10-25T20:12:16.037Z,10.36
2022-10-25T20:14:42.955Z,10.29
2022-10-25T20:17:13.378Z,10.26
2022-10-25T20:19:43.396Z,10.18
2022-10-25T20:22:13.394Z,10.21
2022-10-25T20:24:43.514Z,10.04
2022-10-25T20:27:10.363Z,10.06
2022-10-25T20:29:39.562Z,10.05
2022-10-25T20:32:06.704Z,10.08
2022-10-25T20:34:35.205Z,10.09
2022-10-25T20:37:03.843Z,10.12
2022-10-25T20:39:31.062Z,10.19
2022-10-25T20:41:57.978Z,10.22
2022-10-25T20:44:24.889Z,10.22
2022-10-25T20:46:51.993Z,10.23
2022-10-25T20:49:18.921Z,10.23
2022-10-25T20:51:45.771Z,10.23
2022-10-25T20:54:12.955Z,10.27
2022-10-25T20:56:39.995Z,10.22
2022-10-25T20:59:07.031Z,10.22
2022-10-25T21:01:34.239Z,10.26
2022-10-25T21:04:01.206Z,10.28
2022-10-25T21:06:28.064Z,10.28
2022-10-25T21:08:55.157Z,10.28
2022-10-25T21:11:22.017Z,10.23
2022-10-25T21:13:48.842Z,10.22
2022-10-25T21:16:16.129Z,10.20
2022-10-25T21:18:43.185Z,10.13
2022-10-25T21:21:17.815Z,10.12
2022-10-25T21:23:46.325Z,10.03
2022-10-25T21:26:13.234Z,9.93
2022-10-25T21:28:41.150Z,9.87
2022-10-25T21:31:11.111Z,9.87
2022-10-25T21:33:38.218Z,9.82
2022-10-25T21:36:07.393Z,9.75
2022-10-25T21:38:34.533Z,9.69
2022-10-25T21:41:26.571Z,9.66
2022-10-25T21:43:54.371Z,9.60
2022-10-25T21:46:22.319Z,9.63
2022-10-25T21:48:50.704Z,9.64
2022-10-25T21:51:21.941Z,9.68
2022-10-25T21:53:48.836Z,9.76
2022-10-25T21:56:18.088Z,9.76
2022-10-25T21:58:47.022Z,9.79
2022-10-25T22:01:16.162Z,10.02
2022-10-25T22:03:43.393Z,10.12
2022-10-25T22:06:12.636Z,10.21
2022-10-25T22:08:39.801Z,10.28
2022-10-25T22:11:18.210Z,10.29
2022-10-25T22:13:45.120Z,10.21
2022-10-25T22:16:19.488Z,10.07
2022-10-25T22:18:54.830Z,9.98
2022-10-25T22:21:21.953Z,9.83
2022-10-25T22:23:49.008Z,9.60
2022-10-25T22:26:17.855Z,9.51
2022-10-25T22:28:45.209Z,9.39
2022-10-25T22:31:17.130Z,9.24
2022-10-25T22:33:44.868Z,9.03
2022-10-25T22:36:15.429Z,9.02
2022-10-25T22:38:42.470Z,9.02
2022-10-25T22:41:14.483Z,9.12
2022-10-25T22:43:42.004Z,9.18
2022-10-25T22:46:12.069Z,9.25
2022-10-25T22:48:40.296Z,9.29
2022-10-25T22:51:07.720Z,9.33
2022-10-25T22:53:35.842Z,9.29
2022-10-25T22:56:05.536Z,9.13
2022-10-25T22:58:33.651Z,9.14
2022-10-25T23:01:05.885Z,9.07
2022-10-25T23:03:34.174Z,9.02
2022-10-25T23:06:02.299Z,8.97
2022-10-25T23:08:29.285Z,8.96
2022-10-25T23:11:04.714Z,8.90
2022-10-25T23:13:33.548Z,8.87
2022-10-25T23:16:00.607Z,8.82
2022-10-25T23:18:27.482Z,8.83
2022-10-25T23:20:56.745Z,8.78
2022-10-25T23:23:24.422Z,8.69
2022-10-25T23:25:51.386Z,8.68
2022-10-25T23:28:18.573Z,8.70
2022-10-25T23:30:45.438Z,8.77
2022-10-25T23:33:12.808Z,8.76
2022-10-25T23:35:41.559Z,8.73
2022-10-25T23:38:12.506Z,8.69
2022-10-25T23:40:40.440Z,8.61
2022-10-25T23:43:07.301Z,8.54
2022-10-25T23:45:34.160Z,8.52
2022-10-25T23:48:01.259Z,8.47
2022-10-25T23:50:28.101Z,8.60
2022-10-25T23:52:55.023Z,8.81
2022-10-25T23:55:22.138Z,8.93
2022-10-25T23:57:49.006Z,9.08
